ZSPBS FAWN-FASD
Flight info
| Callsign | ZSPBS |
|---|---|
| Flight time | N/A |
| Altitude | 8000 |
| Route | FACT DCT FAYP/N0182F090 |
| Aircraft | DA42/L-SBDGRY/S |
Departure
| Time | 2026-04-16 12:21 |
|---|---|
| Airport | Cape Winelands Airport (FAWN) |
Arrival
| Time | N/A |
|---|---|
| Airport | Saldanha/Vredenburg Airport (FASD) |
| Time | Latitude | Longitude | Altitude | Speed | Heading |
|---|---|---|---|---|---|
| 2026-04-16 12:08 | -33.77060 | 18.74125 | 411 ft | 0 kts | 183° |
| 2026-04-16 12:08 | 0.00000 | 0.00000 | 1107 ft | 0 kts | 355° |
| 2026-04-16 12:09 | -33.76881 | 18.74227 | 401 ft | 0 kts | 114° |
| 2026-04-16 12:18 | -33.76882 | 18.74228 | 401 ft | 2 kts | 141° |
| 2026-04-16 12:18 | -33.76841 | 18.74202 | 400 ft | 14 kts | 24° |
| 2026-04-16 12:18 | -33.76750 | 18.74258 | 398 ft | 13 kts | 29° |
| 2026-04-16 12:18 | -33.76731 | 18.74263 | 398 ft | 0 kts | 334° |
| 2026-04-16 12:19 | -33.76708 | 18.74234 | 397 ft | 6 kts | 308° |
| 2026-04-16 12:19 | -33.76710 | 18.74219 | 398 ft | 3 kts | 207° |
| 2026-04-16 12:19 | -33.76711 | 18.74219 | 398 ft | 0 kts | 204° |
| 2026-04-16 12:20 | -33.76851 | 18.74144 | 401 ft | 51 kts | 202° |
| 2026-04-16 12:20 | -33.77284 | 18.73910 | 521 ft | 74 kts | 206° |
| 2026-04-16 12:20 | -33.77784 | 18.73679 | 738 ft | 81 kts | 189° |
| 2026-04-16 12:20 | -33.78070 | 18.74258 | 883 ft | 110 kts | 71° |
| 2026-04-16 12:21 | -33.77696 | 18.75073 | 1115 ft | 113 kts | 85° |
| 2026-04-16 12:21 | -33.77925 | 18.75944 | 1292 ft | 110 kts | 119° |
| 2026-04-16 12:21 | -33.78371 | 18.76573 | 1431 ft | 92 kts | 156° |
| 2026-04-16 12:21 | -33.78954 | 18.76834 | 1502 ft | 93 kts | 172° |
| 2026-04-16 12:22 | -33.79631 | 18.77018 | 1504 ft | 104 kts | 170° |
| 2026-04-16 12:22 | -33.80324 | 18.77227 | 1497 ft | 101 kts | 170° |
| 2026-04-16 12:22 | -33.81007 | 18.77420 | 1507 ft | 101 kts | 169° |
| 2026-04-16 12:22 | -33.81716 | 18.77622 | 1510 ft | 108 kts | 171° |
| 2026-04-16 12:23 | -33.82453 | 18.77840 | 1511 ft | 108 kts | 170° |
| 2026-04-16 12:23 | -33.83165 | 18.78065 | 1507 ft | 104 kts | 172° |
| 2026-04-16 12:23 | -33.83848 | 18.78260 | 1493 ft | 97 kts | 170° |
| 2026-04-16 12:23 | -33.84510 | 18.78381 | 1500 ft | 96 kts | 189° |
| 2026-04-16 12:24 | -33.85179 | 18.78316 | 1499 ft | 92 kts | 191° |
| 2026-04-16 12:24 | -33.85801 | 18.78300 | 1495 ft | 86 kts | 187° |
| 2026-04-16 12:24 | -33.86412 | 18.78250 | 1501 ft | 93 kts | 191° |
| 2026-04-16 12:24 | -33.86884 | 18.77829 | 1501 ft | 85 kts | 252° |
| 2026-04-16 12:25 | -33.87074 | 18.77153 | 1490 ft | 86 kts | 250° |
| 2026-04-16 12:25 | -33.87278 | 18.76474 | 1499 ft | 85 kts | 251° |
| 2026-04-16 12:25 | -33.87480 | 18.75814 | 1502 ft | 83 kts | 250° |
| 2026-04-16 12:25 | -33.87686 | 18.75153 | 1508 ft | 86 kts | 251° |
| 2026-04-16 12:26 | -33.87920 | 18.74488 | 1497 ft | 86 kts | 237° |
| 2026-04-16 12:26 | -33.88309 | 18.73957 | 1502 ft | 89 kts | 234° |
| 2026-04-16 12:26 | -33.88759 | 18.73302 | 1499 ft | 111 kts | 233° |
| 2026-04-16 12:26 | -33.89249 | 18.72530 | 1506 ft | 121 kts | 233° |
| 2026-04-16 12:27 | -33.89766 | 18.71704 | 1498 ft | 128 kts | 233° |
| 2026-04-16 12:27 | -33.90077 | 18.70696 | 1497 ft | 129 kts | 257° |
| 2026-04-16 12:27 | -33.90288 | 18.69639 | 1490 ft | 133 kts | 256° |
| 2026-04-16 12:27 | -33.90522 | 18.68563 | 1499 ft | 132 kts | 255° |
| 2026-04-16 12:28 | -33.90743 | 18.67507 | 1495 ft | 128 kts | 253° |
| 2026-04-16 12:28 | -33.91190 | 18.66636 | 1490 ft | 118 kts | 230° |
| 2026-04-16 12:28 | -33.91728 | 18.65936 | 1486 ft | 112 kts | 219° |
| 2026-04-16 12:28 | -33.92377 | 18.65448 | 1476 ft | 106 kts | 220° |
| 2026-04-16 12:29 | -33.92966 | 18.64910 | 1485 ft | 108 kts | 217° |
| 2026-04-16 12:29 | -33.93574 | 18.64377 | 1495 ft | 108 kts | 218° |
| 2026-04-16 12:29 | -33.94168 | 18.63911 | 1354 ft | 101 kts | 216° |
| 2026-04-16 12:29 | -33.94768 | 18.63440 | 1135 ft | 102 kts | 216° |
| 2026-04-16 12:30 | -33.95267 | 18.62946 | 1135 ft | 84 kts | 243° |
| 2026-04-16 12:30 | -33.95243 | 18.62315 | 1112 ft | 75 kts | 292° |
| 2026-04-16 12:30 | -33.95056 | 18.61698 | 1135 ft | 83 kts | 287° |
| 2026-04-16 12:30 | -33.94915 | 18.61039 | 1201 ft | 78 kts | 275° |
| 2026-04-16 12:31 | -33.94852 | 18.60396 | 1008 ft | 80 kts | 276° |
| 2026-04-16 12:31 | -33.95013 | 18.59774 | 773 ft | 91 kts | 212° |
| 2026-04-16 12:31 | -33.95732 | 18.59937 | 372 ft | 115 kts | 184° |
| 2026-04-16 12:31 | -33.96474 | 18.60159 | 165 ft | 101 kts | 188° |
| 2026-04-16 12:32 | -33.97087 | 18.60355 | 156 ft | 82 kts | 170° |
| 2026-04-16 12:32 | -33.97606 | 18.60515 | 145 ft | 73 kts | 165° |
| 2026-04-16 12:32 | -33.98069 | 18.60467 | 327 ft | 65 kts | 227° |
| 2026-04-16 12:32 | -33.98326 | 18.60050 | 586 ft | 64 kts | 240° |
| 2026-04-16 12:33 | -33.98477 | 18.59539 | 815 ft | 67 kts | 261° |
| 2026-04-16 12:33 | -33.98594 | 18.58989 | 1088 ft | 69 kts | 257° |
| 2026-04-16 12:33 | -33.98681 | 18.58424 | 1415 ft | 67 kts | 259° |
| 2026-04-16 12:33 | -33.98752 | 18.57780 | 1499 ft | 92 kts | 259° |
| 2026-04-16 12:34 | -33.98864 | 18.56958 | 1498 ft | 101 kts | 260° |
| 2026-04-16 12:34 | -33.99056 | 18.56185 | 1486 ft | 96 kts | 226° |
| 2026-04-16 12:34 | -33.99571 | 18.55751 | 1473 ft | 88 kts | 250° |
| 2026-04-16 12:34 | -33.99611 | 18.55045 | 1481 ft | 82 kts | 264° |
| 2026-04-16 12:35 | -33.99698 | 18.54391 | 1482 ft | 76 kts | 261° |
| 2026-04-16 12:35 | -33.99794 | 18.53769 | 1483 ft | 75 kts | 259° |
| 2026-04-16 12:35 | -33.99872 | 18.53135 | 1474 ft | 76 kts | 259° |
| 2026-04-16 12:35 | -33.99957 | 18.52535 | 1487 ft | 73 kts | 259° |
| 2026-04-16 12:36 | -34.00056 | 18.51935 | 1491 ft | 74 kts | 259° |
| 2026-04-16 12:36 | -34.00141 | 18.51328 | 1491 ft | 71 kts | 260° |
| 2026-04-16 12:36 | -33.99951 | 18.50808 | 1482 ft | 72 kts | 303° |
| 2026-04-16 12:36 | -33.99571 | 18.50435 | 1475 ft | 73 kts | 330° |
| 2026-04-16 12:37 | -33.99062 | 18.50343 | 1477 ft | 76 kts | 349° |
| 2026-04-16 12:37 | -33.98524 | 18.50325 | 1487 ft | 78 kts | 348° |
| 2026-04-16 12:37 | -33.97985 | 18.50243 | 1482 ft | 75 kts | 332° |
| 2026-04-16 12:37 | -33.97668 | 18.49897 | 1481 ft | 57 kts | 261° |
| 2026-04-16 12:38 | -33.97969 | 18.49648 | 1472 ft | 51 kts | 236° |
| 2026-04-16 12:38 | -33.98106 | 18.49240 | 1493 ft | 67 kts | 252° |
| 2026-04-16 12:38 | -33.98275 | 18.48595 | 1540 ft | 92 kts | 253° |
| 2026-04-16 12:38 | -33.98431 | 18.47763 | 1517 ft | 114 kts | 273° |
| 2026-04-16 12:39 | -33.97935 | 18.46995 | 1509 ft | 130 kts | 336° |
| 2026-04-16 12:39 | -33.97003 | 18.46908 | 1505 ft | 137 kts | 357° |
| 2026-04-16 12:39 | -33.96083 | 18.47012 | 1496 ft | 126 kts | 0° |
| 2026-04-16 12:39 | -33.95258 | 18.47126 | 1488 ft | 114 kts | 1° |
| 2026-04-16 12:40 | -33.94484 | 18.47251 | 1480 ft | 108 kts | 358° |
| 2026-04-16 12:40 | -33.93745 | 18.47363 | 1483 ft | 106 kts | 4° |
| 2026-04-16 12:40 | -33.93029 | 18.47430 | 1494 ft | 103 kts | 359° |
| 2026-04-16 12:40 | -33.92292 | 18.47528 | 1482 ft | 109 kts | 4° |
| 2026-04-16 12:41 | -33.91533 | 18.47648 | 1494 ft | 114 kts | 1° |
| 2026-04-16 12:41 | -33.90725 | 18.47779 | 1499 ft | 118 kts | 1° |
| 2026-04-16 12:41 | -33.89895 | 18.47897 | 1502 ft | 124 kts | 4° |
| 2026-04-16 12:41 | -33.89051 | 18.48018 | 1491 ft | 121 kts | 2° |
| 2026-04-16 12:42 | -33.88224 | 18.48124 | 1498 ft | 120 kts | 1° |
| 2026-04-16 12:42 | -33.87395 | 18.48248 | 1497 ft | 119 kts | 360° |
| 2026-04-16 12:42 | -33.86573 | 18.48325 | 1498 ft | 117 kts | 345° |
| 2026-04-16 12:42 | -33.85816 | 18.48030 | 1498 ft | 113 kts | 335° |
| 2026-04-16 12:43 | -33.85063 | 18.47739 | 1496 ft | 113 kts | 338° |
| 2026-04-16 12:43 | -33.84312 | 18.47428 | 1498 ft | 115 kts | 336° |
| 2026-04-16 12:43 | -33.83547 | 18.47130 | 1492 ft | 115 kts | 335° |
| 2026-04-16 12:43 | -33.82786 | 18.46840 | 1495 ft | 114 kts | 335° |